MZN9AE EGNX-EDDK
Flight info
| Callsign | MZN9AE |
|---|---|
| Flight time | 1h 9m |
| Altitude | 37000 |
| Route | SAPCO Y53 DTY DCT SILVA UM605 BENSU Q70 BIG UL9 KONAN UL607 SPI T857 DENOV T861 ERUKI |
| Aircraft | B738/M-SDE2E3FGHIRWXY/LB1 |
Departure
| Time | 2026-05-04 21:46 |
|---|---|
| Airport | East Midlands Airport (EGNX) |
Arrival
| Time | 2026-05-04 22:55 |
|---|---|
| Airport | Cologne Bonn Airport (EDDK) |
| Time | Latitude | Longitude | Altitude | Speed | Heading |
|---|---|---|---|---|---|
| 2026-05-04 21:29 | 52.82736 | -1.34770 | 313 ft | 0 kts | 178° |
| 2026-05-04 21:36 | 52.82749 | -1.34771 | 313 ft | 3 kts | 178° |
| 2026-05-04 21:36 | 52.82769 | -1.34771 | 313 ft | 3 kts | 178° |
| 2026-05-04 21:37 | 52.82789 | -1.34772 | 313 ft | 3 kts | 179° |
| 2026-05-04 21:37 | 52.82806 | -1.34773 | 313 ft | 3 kts | 189° |
| 2026-05-04 21:37 | 52.82821 | -1.34764 | 312 ft | 3 kts | 233° |
| 2026-05-04 21:37 | 52.82828 | -1.34736 | 313 ft | 3 kts | 266° |
| 2026-05-04 21:38 | 52.82829 | -1.34721 | 313 ft | 0 kts | 268° |
| 2026-05-04 21:40 | 52.82828 | -1.34727 | 313 ft | 3 kts | 268° |
| 2026-05-04 21:40 | 52.82828 | -1.34773 | 313 ft | 4 kts | 268° |
| 2026-05-04 21:40 | 52.82827 | -1.34821 | 314 ft | 6 kts | 268° |
| 2026-05-04 21:40 | 52.82825 | -1.34901 | 314 ft | 7 kts | 268° |
| 2026-05-04 21:41 | 52.82823 | -1.34982 | 315 ft | 7 kts | 268° |
| 2026-05-04 21:41 | 52.82822 | -1.35076 | 315 ft | 10 kts | 269° |
| 2026-05-04 21:41 | 52.82821 | -1.35190 | 315 ft | 10 kts | 273° |
| 2026-05-04 21:41 | 52.82864 | -1.35256 | 315 ft | 10 kts | 9° |
| 2026-05-04 21:42 | 52.82892 | -1.35164 | 314 ft | 10 kts | 85° |
| 2026-05-04 21:42 | 52.82896 | -1.35045 | 315 ft | 11 kts | 85° |
| 2026-05-04 21:42 | 52.82920 | -1.34955 | 314 ft | 7 kts | 41° |
| 2026-05-04 21:42 | 52.82934 | -1.34940 | 314 ft | 1 kts | 28° |
| 2026-05-04 21:43 | 52.82943 | -1.34937 | 314 ft | 1 kts | 5° |
| 2026-05-04 21:43 | 52.82950 | -1.34937 | 314 ft | 0 kts | 1° |
| 2026-05-04 21:45 | 52.82967 | -1.34937 | 315 ft | 6 kts | 1° |
| 2026-05-04 21:45 | 52.83023 | -1.34935 | 315 ft | 9 kts | 6° |
| 2026-05-04 21:45 | 52.83061 | -1.34860 | 313 ft | 11 kts | 84° |
| 2026-05-04 21:46 | 52.83072 | -1.34293 | 308 ft | 93 kts | 88° |
| 2026-05-04 21:46 | 52.83086 | -1.32776 | 329 ft | 166 kts | 91° |
| 2026-05-04 21:46 | 52.83057 | -1.30725 | 1006 ft | 187 kts | 94° |
| 2026-05-04 21:46 | 52.82935 | -1.28567 | 2110 ft | 191 kts | 93° |
| 2026-05-04 21:47 | 52.82832 | -1.26365 | 3194 ft | 192 kts | 92° |
| 2026-05-04 21:47 | 52.82667 | -1.24203 | 4221 ft | 193 kts | 108° |
| 2026-05-04 21:47 | 52.81771 | -1.22376 | 4670 ft | 225 kts | 147° |
| 2026-05-04 21:47 | 52.80254 | -1.21473 | 4344 ft | 235 kts | 159° |
| 2026-05-04 21:48 | 52.79015 | -1.19933 | 4183 ft | 216 kts | 128° |
| 2026-05-04 21:48 | 52.78089 | -1.18082 | 4367 ft | 209 kts | 127° |
| 2026-05-04 21:48 | 52.77138 | -1.16215 | 4584 ft | 215 kts | 127° |
| 2026-05-04 21:48 | 52.76059 | -1.14499 | 4796 ft | 219 kts | 153° |
| 2026-05-04 21:49 | 52.74571 | -1.14315 | 5050 ft | 221 kts | 199° |
| 2026-05-04 21:49 | 52.73394 | -1.15849 | 5313 ft | 218 kts | 238° |
| 2026-05-04 21:49 | 52.72511 | -1.17889 | 5587 ft | 220 kts | 231° |
| 2026-05-04 21:49 | 52.71469 | -1.19694 | 5837 ft | 219 kts | 225° |
| 2026-05-04 21:50 | 52.70326 | -1.21406 | 6091 ft | 219 kts | 223° |
| 2026-05-04 21:50 | 52.69174 | -1.23012 | 6355 ft | 220 kts | 221° |
| 2026-05-04 21:50 | 52.67994 | -1.24622 | 6605 ft | 220 kts | 221° |
| 2026-05-04 21:50 | 52.66811 | -1.26209 | 6845 ft | 219 kts | 220° |
| 2026-05-04 21:51 | 52.65621 | -1.27782 | 7095 ft | 219 kts | 220° |
| 2026-05-04 21:51 | 52.64426 | -1.29345 | 7336 ft | 219 kts | 220° |
| 2026-05-04 21:51 | 52.63228 | -1.30906 | 7593 ft | 220 kts | 220° |
| 2026-05-04 21:51 | 52.62029 | -1.32462 | 7839 ft | 220 kts | 220° |
| 2026-05-04 21:52 | 52.60825 | -1.34022 | 8090 ft | 221 kts | 220° |
| 2026-05-04 21:52 | 52.59549 | -1.35427 | 8416 ft | 219 kts | 207° |
| 2026-05-04 21:52 | 52.58104 | -1.36244 | 8808 ft | 227 kts | 192° |
| 2026-05-04 21:52 | 52.56491 | -1.36394 | 9232 ft | 237 kts | 176° |
| 2026-05-04 21:53 | 52.54844 | -1.35821 | 9647 ft | 248 kts | 163° |
| 2026-05-04 21:53 | 52.53182 | -1.34806 | 10052 ft | 262 kts | 159° |
| 2026-05-04 21:53 | 52.51459 | -1.33647 | 10465 ft | 275 kts | 159° |
| 2026-05-04 21:53 | 52.49641 | -1.32409 | 10891 ft | 289 kts | 159° |
| 2026-05-04 21:54 | 52.47746 | -1.31120 | 11327 ft | 300 kts | 159° |
| 2026-05-04 21:54 | 52.45815 | -1.29815 | 11711 ft | 300 kts | 159° |
| 2026-05-04 21:54 | 52.43887 | -1.28517 | 12115 ft | 297 kts | 159° |
| 2026-05-04 21:54 | 52.41977 | -1.27238 | 12511 ft | 296 kts | 159° |
| 2026-05-04 21:55 | 52.40057 | -1.25957 | 12935 ft | 299 kts | 159° |
| 2026-05-04 21:55 | 52.38109 | -1.24662 | 13375 ft | 305 kts | 159° |
| 2026-05-04 21:55 | 52.36160 | -1.23367 | 13799 ft | 308 kts | 159° |
| 2026-05-04 21:55 | 52.34165 | -1.22044 | 14182 ft | 308 kts | 159° |
| 2026-05-04 21:56 | 52.32182 | -1.20729 | 14591 ft | 307 kts | 160° |
| 2026-05-04 21:56 | 52.30232 | -1.19437 | 15313 ft | 300 kts | 160° |
| 2026-05-04 21:56 | 52.28300 | -1.18160 | 16049 ft | 299 kts | 160° |
| 2026-05-04 21:56 | 52.26374 | -1.16888 | 16807 ft | 297 kts | 159° |
| 2026-05-04 21:57 | 52.24456 | -1.15621 | 17593 ft | 294 kts | 160° |
| 2026-05-04 21:57 | 52.22592 | -1.14392 | 18370 ft | 290 kts | 160° |
| 2026-05-04 21:57 | 52.20723 | -1.13161 | 19081 ft | 286 kts | 160° |
| 2026-05-04 21:57 | 52.18914 | -1.11972 | 19774 ft | 280 kts | 160° |
| 2026-05-04 21:58 | 52.17137 | -1.10802 | 20491 ft | 274 kts | 160° |
| 2026-05-04 21:58 | 52.15346 | -1.09623 | 20828 ft | 284 kts | 160° |
| 2026-05-04 21:58 | 52.13490 | -1.08406 | 21090 ft | 295 kts | 160° |
| 2026-05-04 21:58 | 52.11576 | -1.07155 | 21384 ft | 305 kts | 161° |
| 2026-05-04 21:59 | 52.09488 | -1.06121 | 21671 ft | 314 kts | 168° |
| 2026-05-04 21:59 | 52.07355 | -1.05322 | 21951 ft | 324 kts | 169° |
| 2026-05-04 21:59 | 52.05112 | -1.04530 | 22239 ft | 334 kts | 169° |
| 2026-05-04 21:59 | 52.02808 | -1.03735 | 22526 ft | 342 kts | 169° |
| 2026-05-04 22:00 | 52.00468 | -1.02965 | 22790 ft | 342 kts | 170° |
| 2026-05-04 22:00 | 51.98120 | -1.02384 | 23057 ft | 342 kts | 173° |
| 2026-05-04 22:00 | 51.95754 | -1.01938 | 23326 ft | 341 kts | 174° |
| 2026-05-04 22:00 | 51.93395 | -1.01523 | 23599 ft | 341 kts | 174° |
| 2026-05-04 22:01 | 51.91032 | -1.01138 | 23830 ft | 341 kts | 175° |
| 2026-05-04 22:01 | 51.88666 | -1.00773 | 24024 ft | 342 kts | 175° |
| 2026-05-04 22:01 | 51.86292 | -1.00408 | 24240 ft | 343 kts | 175° |
| 2026-05-04 22:01 | 51.83908 | -1.00039 | 24451 ft | 344 kts | 175° |
| 2026-05-04 22:02 | 51.81528 | -0.99712 | 24660 ft | 344 kts | 178° |
| 2026-05-04 22:02 | 51.79145 | -0.99290 | 24868 ft | 344 kts | 170° |
| 2026-05-04 22:02 | 51.76797 | -0.98526 | 25088 ft | 344 kts | 168° |
| 2026-05-04 22:02 | 51.74450 | -0.97684 | 25304 ft | 344 kts | 168° |
| 2026-05-04 22:03 | 51.72292 | -0.96891 | 25499 ft | 344 kts | 168° |
| 2026-05-04 22:03 | 51.70442 | -0.96201 | 25658 ft | 344 kts | 168° |
| 2026-05-04 22:03 | 51.68106 | -0.95310 | 25857 ft | 345 kts | 168° |
| 2026-05-04 22:03 | 51.65770 | -0.94408 | 26062 ft | 345 kts | 168° |
| 2026-05-04 22:04 | 51.63425 | -0.93536 | 26271 ft | 346 kts | 170° |
| 2026-05-04 22:04 | 51.61065 | -0.92784 | 26480 ft | 347 kts | 167° |
| 2026-05-04 22:04 | 51.58862 | -0.91205 | 26646 ft | 353 kts | 145° |
| 2026-05-04 22:04 | 51.57143 | -0.88426 | 26850 ft | 358 kts | 127° |
| 2026-05-04 22:05 | 51.55984 | -0.84849 | 27054 ft | 363 kts | 116° |
| 2026-05-04 22:05 | 51.55014 | -0.81107 | 27279 ft | 364 kts | 115° |
| 2026-05-04 22:05 | 51.54071 | -0.77312 | 27472 ft | 365 kts | 115° |
| 2026-05-04 22:05 | 51.53134 | -0.73527 | 27677 ft | 365 kts | 115° |
| 2026-05-04 22:06 | 51.52183 | -0.69721 | 27919 ft | 368 kts | 116° |
| 2026-05-04 22:06 | 51.51211 | -0.65878 | 28212 ft | 373 kts | 116° |
| 2026-05-04 22:06 | 51.50232 | -0.62041 | 28491 ft | 378 kts | 116° |
| 2026-05-04 22:06 | 51.49227 | -0.58129 | 28772 ft | 380 kts | 116° |
| 2026-05-04 22:07 | 51.48215 | -0.54203 | 29047 ft | 381 kts | 116° |
| 2026-05-04 22:07 | 51.47199 | -0.50276 | 29330 ft | 382 kts | 117° |
| 2026-05-04 22:07 | 51.46178 | -0.46335 | 29613 ft | 382 kts | 117° |
| 2026-05-04 22:07 | 51.45155 | -0.42398 | 29897 ft | 383 kts | 117° |
| 2026-05-04 22:08 | 51.44128 | -0.38453 | 30175 ft | 383 kts | 117° |
| 2026-05-04 22:08 | 51.43101 | -0.34513 | 30414 ft | 384 kts | 117° |
| 2026-05-04 22:08 | 51.42069 | -0.30563 | 30659 ft | 384 kts | 117° |
| 2026-05-04 22:08 | 51.41036 | -0.26616 | 30906 ft | 385 kts | 117° |
| 2026-05-04 22:09 | 51.39997 | -0.22650 | 31159 ft | 386 kts | 117° |
| 2026-05-04 22:09 | 51.38960 | -0.18700 | 31571 ft | 383 kts | 116° |
| 2026-05-04 22:09 | 51.37930 | -0.14780 | 32017 ft | 380 kts | 116° |
| 2026-05-04 22:09 | 51.36909 | -0.10903 | 32484 ft | 376 kts | 116° |
| 2026-05-04 22:10 | 51.35899 | -0.07072 | 32943 ft | 372 kts | 116° |
| 2026-05-04 22:10 | 51.34898 | -0.03284 | 33411 ft | 367 kts | 115° |
| 2026-05-04 22:10 | 51.33926 | 0.00388 | 33877 ft | 362 kts | 115° |
| 2026-05-04 22:10 | 51.32977 | 0.04102 | 34292 ft | 357 kts | 111° |
| 2026-05-04 22:11 | 51.32354 | 0.07971 | 34428 ft | 363 kts | 104° |
| 2026-05-04 22:11 | 51.31897 | 0.12010 | 34336 ft | 374 kts | 103° |
| 2026-05-04 22:11 | 51.31464 | 0.16139 | 34389 ft | 379 kts | 103° |
| 2026-05-04 22:12 | 51.30499 | 0.24526 | 34515 ft | 388 kts | 104° |
| 2026-05-04 22:12 | 51.29427 | 0.33104 | 34627 ft | 399 kts | 104° |
| 2026-05-04 22:13 | 51.28355 | 0.41911 | 34740 ft | 409 kts | 104° |
| 2026-05-04 22:13 | 51.27265 | 0.50927 | 34841 ft | 419 kts | 104° |
| 2026-05-04 22:13 | 51.26706 | 0.55505 | 35057 ft | 417 kts | 104° |
| 2026-05-04 22:14 | 51.26155 | 0.59965 | 35833 ft | 399 kts | 104° |
| 2026-05-04 22:14 | 51.25600 | 0.64214 | 36588 ft | 385 kts | 105° |
| 2026-05-04 22:14 | 51.25043 | 0.68377 | 36897 ft | 382 kts | 105° |
| 2026-05-04 22:14 | 51.24491 | 0.72521 | 37038 ft | 383 kts | 104° |
| 2026-05-04 22:15 | 51.23953 | 0.76721 | 36984 ft | 389 kts | 104° |
| 2026-05-04 22:15 | 51.22879 | 0.85297 | 36978 ft | 398 kts | 104° |
| 2026-05-04 22:16 | 51.21777 | 0.94038 | 37038 ft | 405 kts | 104° |
| 2026-05-04 22:16 | 51.20835 | 1.01419 | 37050 ft | 412 kts | 104° |
| 2026-05-04 22:17 | 51.19655 | 1.10483 | 37052 ft | 421 kts | 104° |
| 2026-05-04 22:17 | 51.18440 | 1.19711 | 37049 ft | 430 kts | 104° |
| 2026-05-04 22:18 | 51.17197 | 1.29141 | 37047 ft | 439 kts | 104° |
| 2026-05-04 22:18 | 51.16011 | 1.38768 | 37039 ft | 449 kts | 99° |
| 2026-05-04 22:19 | 51.15514 | 1.48790 | 37048 ft | 457 kts | 95° |
| 2026-05-04 22:19 | 51.15149 | 1.58934 | 37042 ft | 465 kts | 95° |
| 2026-05-04 22:20 | 51.14682 | 1.69280 | 37041 ft | 472 kts | 96° |
| 2026-05-04 22:20 | 51.14152 | 1.79749 | 37038 ft | 477 kts | 96° |
| 2026-05-04 22:21 | 51.13605 | 1.90314 | 37023 ft | 480 kts | 96° |
| 2026-05-04 22:21 | 51.13050 | 2.00951 | 37028 ft | 483 kts | 96° |
| 2026-05-04 22:22 | 51.12484 | 2.11607 | 37023 ft | 483 kts | 97° |
| 2026-05-04 22:22 | 51.11912 | 2.22230 | 37021 ft | 481 kts | 97° |
| 2026-05-04 22:23 | 51.11331 | 2.32839 | 37026 ft | 480 kts | 97° |
| 2026-05-04 22:23 | 51.10744 | 2.43377 | 37017 ft | 481 kts | 97° |
| 2026-05-04 22:24 | 51.10145 | 2.53979 | 37026 ft | 481 kts | 97° |
| 2026-05-04 22:24 | 51.09531 | 2.64584 | 37023 ft | 482 kts | 98° |
| 2026-05-04 22:25 | 51.08021 | 2.74904 | 37019 ft | 479 kts | 109° |
| 2026-05-04 22:25 | 51.06023 | 2.85014 | 37023 ft | 479 kts | 109° |
| 2026-05-04 22:26 | 51.04069 | 2.95154 | 37026 ft | 480 kts | 109° |
| 2026-05-04 22:26 | 51.02197 | 3.05267 | 37016 ft | 480 kts | 108° |
| 2026-05-04 22:27 | 51.00326 | 3.15456 | 37011 ft | 480 kts | 108° |
| 2026-05-04 22:27 | 50.98441 | 3.25651 | 37002 ft | 480 kts | 108° |
| 2026-05-04 22:28 | 50.96548 | 3.35817 | 36990 ft | 480 kts | 109° |
| 2026-05-04 22:28 | 50.94645 | 3.45969 | 36990 ft | 480 kts | 109° |
| 2026-05-04 22:29 | 50.92748 | 3.56046 | 36987 ft | 480 kts | 109° |
| 2026-05-04 22:29 | 50.90831 | 3.66159 | 36982 ft | 480 kts | 109° |
| 2026-05-04 22:30 | 50.88877 | 3.76283 | 36969 ft | 480 kts | 109° |
| 2026-05-04 22:30 | 50.86912 | 3.86382 | 36978 ft | 480 kts | 109° |
| 2026-05-04 22:31 | 50.84935 | 3.96505 | 36645 ft | 484 kts | 109° |
| 2026-05-04 22:31 | 50.83935 | 4.01612 | 36108 ft | 486 kts | 109° |
| 2026-05-04 22:31 | 50.82939 | 4.06688 | 35614 ft | 481 kts | 110° |
| 2026-05-04 22:31 | 50.81949 | 4.11729 | 35117 ft | 478 kts | 110° |
| 2026-05-04 22:32 | 50.80956 | 4.16760 | 34645 ft | 479 kts | 110° |
| 2026-05-04 22:32 | 50.79960 | 4.21795 | 34172 ft | 480 kts | 110° |
| 2026-05-04 22:32 | 50.78972 | 4.26772 | 33653 ft | 482 kts | 110° |
| 2026-05-04 22:32 | 50.77966 | 4.31831 | 33122 ft | 483 kts | 110° |
| 2026-05-04 22:33 | 50.76954 | 4.36906 | 32589 ft | 483 kts | 110° |
| 2026-05-04 22:33 | 50.75943 | 4.41966 | 32064 ft | 483 kts | 109° |
| 2026-05-04 22:33 | 50.74931 | 4.47019 | 31549 ft | 482 kts | 109° |
| 2026-05-04 22:33 | 50.73920 | 4.52061 | 31043 ft | 481 kts | 109° |
| 2026-05-04 22:34 | 50.72908 | 4.57087 | 30559 ft | 481 kts | 109° |
| 2026-05-04 22:34 | 50.71897 | 4.62115 | 30058 ft | 480 kts | 109° |
| 2026-05-04 22:34 | 50.70920 | 4.67099 | 29492 ft | 480 kts | 109° |
| 2026-05-04 22:34 | 50.69944 | 4.72153 | 28936 ft | 482 kts | 108° |
| 2026-05-04 22:35 | 50.68962 | 4.77246 | 28388 ft | 487 kts | 108° |
| 2026-05-04 22:35 | 50.67970 | 4.82363 | 27847 ft | 488 kts | 108° |
| 2026-05-04 22:35 | 50.66971 | 4.87477 | 27313 ft | 488 kts | 108° |
| 2026-05-04 22:35 | 50.65966 | 4.92590 | 26793 ft | 488 kts | 108° |
| 2026-05-04 22:36 | 50.64939 | 4.97689 | 26278 ft | 489 kts | 109° |
| 2026-05-04 22:36 | 50.63890 | 5.02807 | 25787 ft | 490 kts | 109° |
| 2026-05-04 22:36 | 50.62849 | 5.07849 | 25307 ft | 490 kts | 109° |
| 2026-05-04 22:36 | 50.61782 | 5.13010 | 24793 ft | 488 kts | 109° |
| 2026-05-04 22:37 | 50.60751 | 5.18002 | 24323 ft | 484 kts | 110° |
| 2026-05-04 22:37 | 50.59714 | 5.23021 | 23853 ft | 480 kts | 110° |
| 2026-05-04 22:37 | 50.58683 | 5.28006 | 23364 ft | 477 kts | 110° |
| 2026-05-04 22:37 | 50.57656 | 5.32956 | 23006 ft | 474 kts | 110° |
| 2026-05-04 22:38 | 50.56630 | 5.37895 | 22974 ft | 475 kts | 110° |
| 2026-05-04 22:38 | 50.55600 | 5.42837 | 22959 ft | 475 kts | 110° |
| 2026-05-04 22:38 | 50.54570 | 5.47771 | 22947 ft | 474 kts | 110° |
| 2026-05-04 22:38 | 50.53539 | 5.52700 | 22735 ft | 476 kts | 110° |
| 2026-05-04 22:39 | 50.52511 | 5.57646 | 22287 ft | 473 kts | 108° |
| 2026-05-04 22:39 | 50.52014 | 5.62721 | 21827 ft | 471 kts | 91° |
| 2026-05-04 22:39 | 50.52487 | 5.67809 | 21433 ft | 473 kts | 75° |
| 2026-05-04 22:39 | 50.53530 | 5.72715 | 21051 ft | 473 kts | 72° |
| 2026-05-04 22:40 | 50.54615 | 5.77578 | 20678 ft | 470 kts | 72° |
| 2026-05-04 22:40 | 50.55675 | 5.82370 | 20318 ft | 468 kts | 72° |
| 2026-05-04 22:40 | 50.56721 | 5.87201 | 19944 ft | 466 kts | 72° |
| 2026-05-04 22:40 | 50.57747 | 5.92032 | 19575 ft | 463 kts | 73° |
| 2026-05-04 22:41 | 50.58754 | 5.96837 | 19214 ft | 461 kts | 73° |
| 2026-05-04 22:41 | 50.59751 | 6.01629 | 18857 ft | 459 kts | 73° |
| 2026-05-04 22:41 | 50.60743 | 6.06411 | 18425 ft | 458 kts | 73° |
| 2026-05-04 22:41 | 50.61731 | 6.11171 | 17802 ft | 458 kts | 73° |
| 2026-05-04 22:42 | 50.62715 | 6.15919 | 17107 ft | 454 kts | 73° |
| 2026-05-04 22:42 | 50.63574 | 6.20652 | 16430 ft | 445 kts | 82° |
| 2026-05-04 22:42 | 50.63597 | 6.25446 | 15771 ft | 433 kts | 99° |
| 2026-05-04 22:42 | 50.63219 | 6.30137 | 14880 ft | 432 kts | 98° |
| 2026-05-04 22:43 | 50.62931 | 6.34723 | 14211 ft | 417 kts | 97° |
| 2026-05-04 22:43 | 50.62698 | 6.39181 | 13579 ft | 401 kts | 97° |
| 2026-05-04 22:43 | 50.62483 | 6.43501 | 12856 ft | 389 kts | 97° |
| 2026-05-04 22:43 | 50.62272 | 6.47706 | 12144 ft | 378 kts | 97° |
| 2026-05-04 22:44 | 50.62062 | 6.51803 | 11198 ft | 375 kts | 97° |
| 2026-05-04 22:44 | 50.61848 | 6.55890 | 10257 ft | 373 kts | 98° |
| 2026-05-04 22:44 | 50.61631 | 6.59956 | 9308 ft | 371 kts | 98° |
| 2026-05-04 22:44 | 50.61415 | 6.63981 | 8333 ft | 368 kts | 97° |
| 2026-05-04 22:45 | 50.61207 | 6.67986 | 7471 ft | 364 kts | 95° |
| 2026-05-04 22:45 | 50.62545 | 6.75123 | 7074 ft | 328 kts | 57° |
| 2026-05-04 22:45 | 50.64034 | 6.77624 | 6972 ft | 309 kts | 34° |
| 2026-05-04 22:46 | 50.65892 | 6.79049 | 6950 ft | 287 kts | 11° |
| 2026-05-04 22:46 | 50.67779 | 6.79395 | 6965 ft | 265 kts | 1° |
| 2026-05-04 22:46 | 50.69574 | 6.79521 | 6960 ft | 252 kts | 0° |
| 2026-05-04 22:46 | 50.71292 | 6.79619 | 6889 ft | 243 kts | 0° |
| 2026-05-04 22:47 | 50.72962 | 6.79854 | 6666 ft | 242 kts | 14° |
| 2026-05-04 22:47 | 50.74568 | 6.80691 | 6300 ft | 246 kts | 18° |
| 2026-05-04 22:47 | 50.76209 | 6.81575 | 5487 ft | 256 kts | 18° |
| 2026-05-04 22:47 | 50.77910 | 6.82481 | 4880 ft | 254 kts | 18° |
| 2026-05-04 22:48 | 50.79515 | 6.83336 | 4694 ft | 232 kts | 18° |
| 2026-05-04 22:48 | 50.80963 | 6.84112 | 4584 ft | 209 kts | 18° |
| 2026-05-04 22:48 | 50.82292 | 6.84829 | 4491 ft | 200 kts | 18° |
| 2026-05-04 22:48 | 50.83584 | 6.85526 | 4474 ft | 198 kts | 18° |
| 2026-05-04 22:49 | 50.84896 | 6.86236 | 4472 ft | 199 kts | 18° |
| 2026-05-04 22:49 | 50.86207 | 6.86944 | 4367 ft | 202 kts | 18° |
| 2026-05-04 22:49 | 50.87524 | 6.87655 | 3974 ft | 195 kts | 18° |
| 2026-05-04 22:49 | 50.88777 | 6.88336 | 3600 ft | 185 kts | 18° |
| 2026-05-04 22:50 | 50.89932 | 6.89110 | 3231 ft | 177 kts | 29° |
| 2026-05-04 22:50 | 50.90976 | 6.90120 | 3068 ft | 179 kts | 32° |
| 2026-05-04 22:50 | 50.92031 | 6.91166 | 2984 ft | 178 kts | 32° |
| 2026-05-04 22:50 | 50.93042 | 6.92179 | 2815 ft | 173 kts | 33° |
| 2026-05-04 22:51 | 50.94042 | 6.93243 | 2293 ft | 169 kts | 37° |
| 2026-05-04 22:51 | 50.94893 | 6.94412 | 2000 ft | 156 kts | 47° |
| 2026-05-04 22:51 | 50.95475 | 6.95794 | 1772 ft | 148 kts | 66° |
| 2026-05-04 22:51 | 50.95895 | 6.97308 | 1770 ft | 154 kts | 74° |
| 2026-05-04 22:52 | 50.96124 | 6.98969 | 1909 ft | 155 kts | 90° |
| 2026-05-04 22:52 | 50.96020 | 7.00659 | 1991 ft | 153 kts | 112° |
| 2026-05-04 22:52 | 50.95496 | 7.02090 | 1971 ft | 148 kts | 134° |
| 2026-05-04 22:52 | 50.94762 | 7.03202 | 2011 ft | 145 kts | 143° |
| 2026-05-04 22:53 | 50.93977 | 7.04224 | 2130 ft | 147 kts | 145° |
| 2026-05-04 22:53 | 50.93192 | 7.05283 | 2140 ft | 149 kts | 141° |
| 2026-05-04 22:53 | 50.92434 | 7.06414 | 1975 ft | 149 kts | 139° |
| 2026-05-04 22:53 | 50.91701 | 7.07555 | 1664 ft | 150 kts | 139° |
| 2026-05-04 22:54 | 50.90953 | 7.08668 | 1365 ft | 144 kts | 139° |
| 2026-05-04 22:54 | 50.90211 | 7.09754 | 991 ft | 146 kts | 137° |
| 2026-05-04 22:54 | 50.89474 | 7.10817 | 725 ft | 141 kts | 136° |
| 2026-05-04 22:54 | 50.88771 | 7.11842 | 479 ft | 135 kts | 136° |
| 2026-05-04 22:55 | 50.88099 | 7.12825 | 293 ft | 128 kts | 136° |
| 2026-05-04 22:55 | 50.87513 | 7.13694 | 245 ft | 94 kts | 137° |
| 2026-05-04 22:55 | 50.87179 | 7.14174 | 256 ft | 39 kts | 138° |
| 2026-05-04 22:55 | 50.87043 | 7.14371 | 256 ft | 22 kts | 137° |
| 2026-05-04 22:56 | 50.86948 | 7.14505 | 256 ft | 16 kts | 139° |
| 2026-05-04 22:56 | 50.86884 | 7.14509 | 255 ft | 5 kts | 230° |
| 2026-05-04 22:56 | 50.86878 | 7.14490 | 255 ft | 3 kts | 251° |
| 2026-05-04 22:56 | 50.86877 | 7.14454 | 256 ft | 3 kts | 270° |
| 2026-05-04 22:57 | 50.86879 | 7.14420 | 257 ft | 3 kts | 277° |
| 2026-05-04 22:57 | 50.86887 | 7.14332 | 258 ft | 14 kts | 280° |
| 2026-05-04 22:57 | 50.86907 | 7.14152 | 251 ft | 14 kts | 279° |
| 2026-05-04 22:57 | 50.86914 | 7.14081 | 250 ft | 16 kts | 279° |
| 2026-05-04 22:58 | 50.86935 | 7.13927 | 243 ft | 6 kts | 294° |
| 2026-05-04 22:58 | 50.86945 | 7.13855 | 242 ft | 8 kts | 235° |
| 2026-05-04 22:58 | 50.86905 | 7.13791 | 242 ft | 8 kts | 227° |
| 2026-05-04 22:58 | 50.86895 | 7.13773 | 242 ft | 0 kts | 227° |
| 2026-05-04 23:05 | 50.86894 | 7.13773 | 242 ft | 0 kts | 228° |